Time;durP1;ratioP1;P1;durP2;ratioP2;P2;SDS_P1;SDS_P2;PMS_P1;PMS_P2;Temp;Humidity;BMP_temperature;BMP_pressure;BME280_temperature;BME280_humidity;BME280_pressure;Samples;Min_cycle;Max_cycle;Signal;HPM_P1;HPM_P2
2023/11/10 00:01:20;;;;;;;3.33;1.70;;;;;;;10.57;94.88;96920.91;4188691;28;20690;-88
2023/11/10 00:03:24;;;;;;;3.97;3.00;;;;;;;10.57;94.72;96915.69;4187752;28;20652;-88
2023/11/10 00:05:28;;;;;;;3.90;2.50;;;;;;;10.56;94.99;96903.66;4206286;28;20638;-88
2023/11/10 00:07:31;;;;;;;5.70;3.70;;;;;;;10.56;95.17;96903.66;4191583;28;20769;-88
2023/11/10 00:09:35;;;;;;;4.13;2.13;;;;;;;10.56;94.94;96904.47;4201664;28;20684;-89
2023/11/10 00:11:41;;;;;;;2.63;1.77;;;;;;;10.56;95.71;96893.22;4185712;28;21332;-88
2023/11/10 00:13:44;;;;;;;2.50;1.40;;;;;;;10.54;95.89;96895.13;4170425;28;21193;-88
2023/11/10 00:15:48;;;;;;;1.67;1.20;;;;;;;10.55;95.63;96883.75;4173664;28;20631;-88
2023/11/10 00:17:51;;;;;;;1.90;1.03;;;;;;;10.51;95.60;96866.75;4205183;28;20622;-88
2023/11/10 00:19:54;;;;;;;1.97;1.20;;;;;;;10.49;95.13;96850.38;4204652;28;21419;-89
2023/11/10 00:21:57;;;;;;;1.73;0.73;;;;;;;10.47;94.84;96857.53;4190591;28;21280;-88
2023/11/10 00:24:03;;;;;;;1.20;0.60;;;;;;;10.41;95.25;96853.66;4205535;28;20646;-88
2023/11/10 00:26:06;;;;;;;1.47;0.80;;;;;;;10.37;94.96;96857.53;4177105;28;20646;-88
2023/11/10 00:28:12;;;;;;;2.27;0.80;;;;;;;10.25;95.50;96860.34;4192701;28;21217;-88
2023/11/10 00:30:15;;;;;;;1.97;0.97;;;;;;;10.19;96.17;96855.66;4180966;28;20667;-88
2023/11/10 00:32:18;;;;;;;2.63;1.10;;;;;;;10.15;96.11;96867.31;4186340;28;20674;-88
2023/11/10 00:34:21;;;;;;;1.43;0.90;;;;;;;10.15;96.18;96859.50;4172814;28;20643;-88
2023/11/10 00:36:27;;;;;;;1.80;1.03;;;;;;;10.10;96.77;96846.06;4198701;28;20768;-89
2023/11/10 00:38:31;;;;;;;1.07;0.80;;;;;;;10.05;96.68;96813.53;4171852;28;20627;-88
2023/11/10 00:40:36;;;;;;;2.00;0.83;;;;;;;9.97;97.98;96829.81;4188732;28;21176;-89
2023/11/10 00:42:40;;;;;;;1.70;0.80;;;;;;;9.96;98.09;96822.97;4184837;28;20629;-88
2023/11/10 00:44:44;;;;;;;2.07;1.00;;;;;;;9.98;98.12;96828.88;4204888;28;20635;-88
2023/11/10 00:46:49;;;;;;;1.30;1.00;;;;;;;10.01;98.04;96828.63;4172050;28;20683;-88
2023/11/10 00:48:52;;;;;;;2.33;1.10;;;;;;;10.06;98.08;96836.03;4206788;28;20636;-88
2023/11/10 00:50:56;;;;;;;1.50;0.97;;;;;;;10.07;99.04;96843.72;4183057;28;20628;-88
2023/11/10 00:52:59;;;;;;;1.57;1.10;;;;;;;10.10;98.31;96843.47;4171493;28;20736;-88
2023/11/10 00:55:05;;;;;;;1.20;0.90;;;;;;;10.13;97.86;96843.19;4190570;28;20663;-88
2023/11/10 00:57:08;;;;;;;2.73;1.03;;;;;;;10.16;97.82;96840.28;4187691;28;20638;-88
2023/11/10 00:59:11;;;;;;;1.43;1.03;;;;;;;10.12;97.45;96840.72;4183986;28;20660;-88
2023/11/10 01:01:16;;;;;;;2.70;1.20;;;;;;;10.15;97.51;96838.66;4185674;28;20738;-88
2023/11/10 01:03:19;;;;;;;1.43;0.93;;;;;;;10.15;97.24;96838.66;4174063;28;20690;-88
2023/11/10 01:05:24;;;;;;;1.47;1.07;;;;;;;10.17;97.51;96833.31;4173942;28;20653;-88
2023/11/10 01:07:28;;;;;;;1.23;0.90;;;;;;;10.18;97.40;96835.78;4185312;28;20636;-88
2023/11/10 01:09:31;;;;;;;1.47;0.90;;;;;;;10.19;97.44;96840.03;4187236;28;20710;-88
2023/11/10 01:11:34;;;;;;;1.87;1.07;;;;;;;10.19;97.22;96842.63;4174268;28;20706;-88
2023/11/10 01:13:38;;;;;;;1.40;0.90;;;;;;;10.22;97.29;96837.16;4191799;28;20619;-88
2023/11/10 01:15:42;;;;;;;1.53;0.90;;;;;;;10.19;96.90;96832.22;4196638;28;21072;-88
2023/11/10 01:17:47;;;;;;;1.30;1.00;;;;;;;10.22;97.85;96828.53;4168166;28;20662;-88
2023/11/10 01:19:50;;;;;;;1.77;1.10;;;;;;;10.21;97.63;96829.47;4180218;28;20716;-88
2023/11/10 01:21:53;;;;;;;1.63;1.10;;;;;;;10.22;97.49;96815.50;4190523;28;20739;-88
2023/11/10 01:23:56;;;;;;;2.37;1.10;;;;;;;10.22;97.29;96811.09;4184238;28;20735;-88
2023/11/10 01:25:59;;;;;;;1.90;1.27;;;;;;;10.23;97.88;96804.94;4175392;28;20651;-88
2023/11/10 01:28:03;;;;;;;2.63;1.30;;;;;;;10.25;97.39;96812.63;4183364;28;20617;-88
2023/11/10 01:30:07;;;;;;;1.03;0.80;;;;;;;10.24;97.87;96800.53;4192161;28;20693;-88
2023/11/10 01:32:12;;;;;;;1.43;1.10;;;;;;;10.22;97.90;96802.47;4192350;28;20632;-88
2023/11/10 01:34:17;;;;;;;1.70;1.10;;;;;;;10.23;97.47;96802.34;4170380;28;21209;-88
2023/11/10 01:36:21;;;;;;;1.50;1.20;;;;;;;10.25;97.17;96803.03;4171122;28;20631;-88
2023/11/10 01:38:23;;;;;;;1.43;1.13;;;;;;;10.26;97.65;96804.69;4173155;28;20625;-88
2023/11/10 01:40:26;;;;;;;1.70;1.13;;;;;;;10.26;97.74;96803.88;4171651;28;20648;-88
2023/11/10 01:42:29;;;;;;;2.60;1.20;;;;;;;10.27;97.72;96806.34;4163744;28;20637;-88
2023/11/10 01:44:33;;;;;;;1.40;1.00;;;;;;;10.28;97.43;96804.53;4182066;28;20624;-88
2023/11/10 01:46:46;;;;;;;1.53;1.10;;;;;;;10.29;98.06;96811.41;4189304;28;20652;-87
2023/11/10 01:48:51;;;;;;;1.90;1.13;;;;;;;10.28;97.17;96804.53;4189670;28;20724;-88
2023/11/10 01:50:54;;;;;;;1.60;1.23;;;;;;;10.29;97.62;96809.63;4177962;28;20616;-88
2023/11/10 01:53:01;;;;;;;3.33;1.63;;;;;;;10.29;97.56;96801.00;4165154;28;21025;-88
2023/11/10 01:55:05;;;;;;;1.60;1.30;;;;;;;10.30;97.73;96800.00;4177734;28;20633;-88
2023/11/10 01:57:09;;;;;;;2.63;1.60;;;;;;;10.28;97.44;96792.31;4190454;28;20682;-87
2023/11/10 01:59:15;;;;;;;1.50;1.20;;;;;;;10.27;97.71;96784.66;4185645;28;20707;-88
2023/11/10 02:01:18;;;;;;;2.13;1.20;;;;;;;10.28;97.26;96791.50;4173593;28;21084;-88
2023/11/10 02:03:23;;;;;;;1.57;1.30;;;;;;;10.27;97.29;96788.09;4176316;28;20647;-88
2023/11/10 02:05:27;;;;;;;1.50;1.20;;;;;;;10.27;97.34;96788.09;4178766;28;20660;-88
2023/11/10 02:07:32;;;;;;;5.80;1.30;;;;;;;10.27;97.06;96793.31;4193863;28;20639;-88
2023/11/10 02:09:35;;;;;;;1.70;1.30;;;;;;;10.27;96.84;96792.47;4175948;28;20653;-88
2023/11/10 02:11:38;;;;;;;1.93;1.23;;;;;;;10.26;97.42;96786.44;4172251;28;20720;-88
2023/11/10 02:13:41;;;;;;;2.47;1.40;;;;;;;10.23;97.16;96785.91;4200975;28;20616;-88
2023/11/10 02:15:44;;;;;;;2.13;1.17;;;;;;;10.20;97.71;96786.97;4194678;28;20649;-88
2023/11/10 02:17:47;;;;;;;1.87;1.20;;;;;;;10.20;97.74;96786.97;4184006;28;20620;-88
2023/11/10 02:19:51;;;;;;;1.83;1.20;;;;;;;10.20;98.26;96780.94;4185180;28;21029;-88
2023/11/10 02:21:56;;;;;;;1.90;1.27;;;;;;;10.24;98.45;96772.72;4190970;28;20615;-88
2023/11/10 02:24:03;;;;;;;2.20;1.17;;;;;;;10.22;97.76;96769.41;4168746;28;21210;-88
2023/11/10 02:26:08;;;;;;;2.30;1.50;;;;;;;10.19;97.70;96767.06;4188837;28;20636;-88
2023/11/10 02:28:11;;;;;;;1.90;1.40;;;;;;;10.17;97.83;96768.19;4174919;28;22482;-88
2023/11/10 02:30:14;;;;;;;0.97;0.60;;;;;;;10.16;97.48;96769.94;4177371;28;21272;-88
2023/11/10 02:32:17;;;;;;;2.03;0.80;;;;;;;10.21;97.52;96773.00;4204830;28;21060;-88
2023/11/10 02:34:20;;;;;;;1.87;0.60;;;;;;;10.26;96.61;96776.00;4178085;28;20616;-88
2023/11/10 02:36:23;;;;;;;1.27;0.60;;;;;;;10.32;96.62;96772.88;4177729;28;20655;-88
2023/11/10 02:38:26;;;;;;;0.97;0.70;;;;;;;10.36;95.92;96772.47;4173288;28;20682;-87
2023/11/10 02:40:29;;;;;;;1.10;0.70;;;;;;;10.40;96.66;96762.59;4206270;28;20691;-88
2023/11/10 02:42:34;;;;;;;1.07;0.70;;;;;;;10.43;96.38;96759.72;4184802;28;20702;-88
2023/11/10 02:44:38;;;;;;;1.20;0.60;;;;;;;10.47;95.83;96766.31;4198721;28;20638;-88
2023/11/10 02:46:41;;;;;;;0.70;0.40;;;;;;;10.48;95.85;96763.56;4204000;28;21007;-88
2023/11/10 02:48:45;;;;;;;0.80;0.50;;;;;;;10.50;95.37;96760.81;4207353;28;20674;-88
2023/11/10 02:50:48;;;;;;;1.00;0.60;;;;;;;10.49;95.24;96760.00;4192283;28;20640;-88
2023/11/10 02:52:52;;;;;;;1.30;0.60;;;;;;;10.51;96.67;96757.25;4169055;28;20664;-88
2023/11/10 02:54:55;;;;;;;1.00;0.50;;;;;;;10.50;96.79;96763.44;4187382;28;21083;-88
2023/11/10 02:56:57;;;;;;;1.53;0.63;;;;;;;10.52;96.65;96756.28;4186815;28;21224;-88
2023/11/10 02:59:01;;;;;;;1.37;0.60;;;;;;;10.54;96.78;96755.19;4172261;28;20690;-88
2023/11/10 03:01:05;;;;;;;0.90;0.60;;;;;;;10.55;96.13;96750.78;4178091;28;20681;-88
2023/11/10 03:03:08;;;;;;;0.97;0.50;;;;;;;10.56;96.77;96757.66;4190728;28;20635;-88
2023/11/10 03:05:14;;;;;;;0.90;0.50;;;;;;;10.57;96.63;96751.47;4183360;28;20681;-88
2023/11/10 03:07:19;;;;;;;1.20;0.80;;;;;;;10.59;95.81;96760.00;4201872;28;21013;-88
2023/11/10 03:09:23;;;;;;;1.83;0.60;;;;;;;10.62;96.38;96757.94;4187917;28;20642;-88
2023/11/10 03:11:26;;;;;;;1.00;0.60;;;;;;;10.62;96.12;96757.13;4178188;28;20644;-88
2023/11/10 03:13:29;;;;;;;0.90;0.60;;;;;;;10.60;96.33;96759.88;4172666;28;21203;-88
2023/11/10 03:15:34;;;;;;;1.23;0.77;;;;;;;10.56;96.31;96760.28;4185679;28;20834;-88
2023/11/10 03:17:37;;;;;;;1.10;0.80;;;;;;;10.57;96.82;96749.72;4190748;28;20619;-88
2023/11/10 03:19:41;;;;;;;1.03;0.70;;;;;;;10.60;97.33;96754.66;4175873;28;20672;-88
2023/11/10 03:21:45;;;;;;;1.40;0.70;;;;;;;10.63;97.68;96758.75;4189265;28;20666;-88
2023/11/10 03:23:48;;;;;;;1.10;0.60;;;;;;;10.64;96.42;96753.38;4189181;28;20604;-88
2023/11/10 03:25:51;;;;;;;1.53;0.93;;;;;;;10.60;96.98;96754.66;4207854;28;20628;-88
2023/11/10 03:27:54;;;;;;;1.30;0.70;;;;;;;10.60;96.83;96756.41;4176752;28;20691;-88
2023/11/10 03:29:57;;;;;;;2.10;0.80;;;;;;;10.57;96.95;96759.28;4180072;28;20668;-88
2023/11/10 03:32:02;;;;;;;1.00;0.70;;;;;;;10.54;97.33;96760.41;4173645;28;20757;-88
2023/11/10 03:34:05;;;;;;;1.10;0.80;;;;;;;10.53;97.92;96756.16;4207429;28;20618;-87
2023/11/10 03:36:09;;;;;;;2.13;0.90;;;;;;;10.55;97.93;96756.00;4204274;28;20663;-88
2023/11/10 03:38:12;;;;;;;1.27;0.80;;;;;;;10.52;97.90;96757.09;4168144;28;21227;-88
2023/11/10 03:40:16;;;;;;;1.10;0.70;;;;;;;10.53;97.06;96755.34;4180364;28;20644;-88
2023/11/10 03:42:19;;;;;;;1.30;0.83;;;;;;;10.53;96.92;96758.75;4189552;28;20636;-88
2023/11/10 03:44:22;;;;;;;1.03;0.70;;;;;;;10.54;97.74;96751.75;4184205;28;20755;-88
2023/11/10 03:46:25;;;;;;;1.00;0.73;;;;;;;10.53;97.38;96752.72;4170691;28;20651;-88
2023/11/10 03:48:30;;;;;;;1.10;0.60;;;;;;;10.57;97.73;96748.88;4199040;28;20983;-88
2023/11/10 03:50:33;;;;;;;1.20;0.80;;;;;;;10.57;96.76;96752.31;4164132;28;20644;-88
2023/11/10 03:52:36;;;;;;;1.10;0.70;;;;;;;10.58;96.64;96748.72;4163752;28;20637;-87
2023/11/10 03:54:40;;;;;;;2.63;0.83;;;;;;;10.58;96.80;96751.34;4188065;28;20694;-88
2023/11/10 03:56:43;;;;;;;1.20;0.63;;;;;;;10.60;97.08;96756.41;4202108;28;20627;-88
2023/11/10 03:58:46;;;;;;;2.50;1.00;;;;;;;10.60;97.47;96764.22;4189446;28;20638;-88
2023/11/10 04:00:49;;;;;;;1.33;0.80;;;;;;;10.58;96.46;96758.34;4202764;28;20652;-88
2023/11/10 04:02:53;;;;;;;8.30;1.73;;;;;;;10.57;95.38;96759.28;4187836;28;20656;-88
2023/11/10 04:04:57;;;;;;;1.20;0.63;;;;;;;10.58;97.43;96755.72;4208658;28;20630;-88
2023/11/10 04:07:03;;;;;;;1.03;0.67;;;;;;;10.57;96.45;96756.69;4208468;28;20629;-87
2023/11/10 04:09:07;;;;;;;1.10;0.53;;;;;;;10.55;95.75;96750.78;4183210;28;21291;-88
2023/11/10 04:11:10;;;;;;;0.90;0.60;;;;;;;10.54;96.00;96751.75;4184632;28;20647;-88
2023/11/10 04:13:13;;;;;;;0.90;0.63;;;;;;;10.55;94.77;96756.00;4188048;28;20727;-88
2023/11/10 04:15:17;;;;;;;0.90;0.60;;;;;;;10.51;95.08;96746.84;4192072;28;20634;-88
2023/11/10 04:17:20;;;;;;;1.10;0.70;;;;;;;10.46;94.79;96749.00;4174874;28;20633;-88
2023/11/10 04:19:23;;;;;;;0.97;0.57;;;;;;;10.43;96.05;96751.88;4190549;28;21025;-88
2023/11/10 04:21:28;;;;;;;1.00;0.50;;;;;;;10.37;95.71;96742.84;4204925;28;20662;-87
2023/11/10 04:23:31;;;;;;;0.90;0.60;;;;;;;10.36;96.63;96743.81;4187734;28;21067;-88
2023/11/10 04:25:34;;;;;;;1.10;0.60;;;;;;;10.35;95.92;96744.75;4206642;28;20625;-88
2023/11/10 04:27:39;;;;;;;1.20;0.60;;;;;;;10.31;95.72;96746.94;4184822;28;20670;-87
2023/11/10 04:29:41;;;;;;;1.00;0.50;;;;;;;10.24;96.42;96741.47;4189602;28;20696;-87
2023/11/10 04:31:44;;;;;;;0.87;0.50;;;;;;;10.19;95.93;96748.84;4176896;28;20652;-88
2023/11/10 04:33:48;;;;;;;1.27;0.63;;;;;;;10.20;96.59;96750.50;4194223;28;21094;-88
2023/11/10 04:35:51;;;;;;;1.00;0.60;;;;;;;10.16;96.46;96763.94;4201823;28;20628;-88
2023/11/10 04:37:58;;;;;;;0.80;0.50;;;;;;;10.19;96.54;96761.88;4188474;28;20711;-88
2023/11/10 04:40:01;;;;;;;1.07;0.40;;;;;;;10.21;96.34;96762.59;4185057;28;20632;-88
2023/11/10 04:42:04;;;;;;;1.00;0.60;;;;;;;10.26;95.83;96759.56;4207257;28;20716;-88
2023/11/10 04:44:08;;;;;;;1.13;0.70;;;;;;;10.28;96.14;96757.63;4182600;28;20633;-87
2023/11/10 04:46:10;;;;;;;1.20;0.50;;;;;;;10.29;97.21;96749.69;4170194;28;20629;-87
2023/11/10 04:48:13;;;;;;;2.03;0.77;;;;;;;10.32;96.45;96744.22;4206429;28;20730;-88
2023/11/10 04:50:18;;;;;;;0.90;0.50;;;;;;;10.35;96.79;96749.16;4191820;28;20644;-88
2023/11/10 04:52:22;;;;;;;0.97;0.70;;;;;;;10.38;96.21;96748.88;4186931;28;21236;-87
2023/11/10 04:54:27;;;;;;;1.30;0.50;;;;;;;10.40;96.02;96746.94;4205943;28;20630;-88
2023/11/10 04:56:30;;;;;;;1.87;0.70;;;;;;;10.42;96.54;96756.28;4187078;28;21216;-87
2023/11/10 04:58:34;;;;;;;0.90;0.60;;;;;;;10.43;95.74;96751.88;4191043;28;20631;-88
2023/11/10 05:00:37;;;;;;;0.80;0.50;;;;;;;10.47;95.69;96755.88;4203956;28;20666;-88
2023/11/10 05:02:41;;;;;;;0.83;0.50;;;;;;;10.49;95.95;96756.56;4165134;28;20669;-88
2023/11/10 05:04:44;;;;;;;1.40;0.60;;;;;;;10.52;95.37;96754.50;4189790;28;20627;-88
2023/11/10 05:06:47;;;;;;;1.00;0.57;;;;;;;10.53;94.76;96757.94;4190468;28;20616;-88
2023/11/10 05:08:50;;;;;;;0.90;0.60;;;;;;;10.55;95.48;96753.41;4203537;28;20619;-88
2023/11/10 05:10:55;;;;;;;1.10;0.67;;;;;;;10.55;94.52;96761.22;4191373;28;20662;-88
2023/11/10 05:12:58;;;;;;;1.67;0.60;;;;;;;10.52;95.14;96751.88;4191220;28;20632;-88
2023/11/10 05:15:05;;;;;;;1.50;0.70;;;;;;;10.44;94.52;96750.94;4191338;28;20636;-88
2023/11/10 05:17:08;;;;;;;1.20;0.80;;;;;;;10.44;94.85;96761.38;4174047;28;20636;-88
2023/11/10 05:19:12;;;;;;;1.17;0.70;;;;;;;10.36;96.42;96762.03;4187138;28;21340;-88
2023/11/10 05:21:16;;;;;;;0.83;0.50;;;;;;;10.31;95.52;96762.59;4190932;28;21859;-88
2023/11/10 05:23:20;;;;;;;0.80;0.57;;;;;;;10.28;96.12;96762.84;4177250;28;21029;-88
2023/11/10 05:25:23;;;;;;;1.40;0.70;;;;;;;10.19;95.64;96769.69;4205128;28;20637;-88
2023/11/10 05:27:29;;;;;;;1.40;0.60;;;;;;;10.12;95.89;96765.19;4191652;28;20634;-88
2023/11/10 05:29:32;;;;;;;1.70;0.60;;;;;;;10.06;96.30;96771.75;4177732;28;20727;-88
2023/11/10 05:31:36;;;;;;;2.08;0.63;;;;;;;10.01;96.57;96766.13;4176590;28;20663;-88
2023/11/10 05:33:39;;;;;;;1.20;0.70;;;;;;;9.90;96.77;96762.75;4177107;28;20265;-88
2023/11/10 05:35:42;;;;;;;1.70;0.80;;;;;;;9.88;97.15;96770.69;4206513;28;20715;-88
2023/11/10 05:37:45;;;;;;;0.80;0.50;;;;;;;9.83;96.89;96766.00;4179339;28;20638;-88
2023/11/10 05:39:49;;;;;;;0.90;0.60;;;;;;;9.76;96.79;96772.69;4190535;28;21176;-88
2023/11/10 05:41:52;;;;;;;1.30;0.53;;;;;;;9.73;96.87;96779.00;4192121;28;20237;-87
2023/11/10 05:43:57;;;;;;;1.20;0.40;;;;;;;9.72;96.41;96779.16;4193549;28;21211;-88
2023/11/10 05:46:01;;;;;;;1.27;0.70;;;;;;;9.66;97.27;96779.66;4212533;28;20710;-88
2023/11/10 05:48:05;;;;;;;1.30;0.60;;;;;;;9.62;97.22;96786.91;4175421;28;20676;-88
2023/11/10 05:50:10;;;;;;;1.73;0.60;;;;;;;9.56;98.99;96779.63;4188388;28;20640;-88
2023/11/10 05:52:13;;;;;;;1.43;0.47;;;;;;;9.51;98.78;96784.38;4190551;28;20682;-88
2023/11/10 05:54:17;;;;;;;1.10;0.45;;;;;;;9.41;99.11;96780.94;4189105;28;20632;-89
2023/11/10 05:56:23;;;;;;;1.42;0.40;;;;;;;9.39;99.91;96784.59;4193748;28;20209;-88
2023/11/10 05:58:26;;;;;;;0.95;0.60;;;;;;;9.37;99.93;96773.50;4175856;28;20292;-89
2023/11/10 06:00:32;;;;;;;1.23;0.60;;;;;;;9.39;99.43;96774.19;4175058;28;20633;-88
2023/11/10 06:02:35;;;;;;;0.70;0.50;;;;;;;9.42;99.95;96779.16;4195826;28;21308;-88
2023/11/10 06:04:39;;;;;;;1.20;0.40;;;;;;;9.46;99.98;96783.16;4177025;28;20206;-88
2023/11/10 06:06:43;;;;;;;0.80;0.40;;;;;;;9.40;99.77;96794.06;4202307;28;20638;-88
2023/11/10 06:08:46;;;;;;;1.77;0.50;;;;;;;9.41;99.88;96796.53;4186401;28;21321;-89
2023/11/10 06:10:52;;;;;;;0.70;0.38;;;;;;;9.42;99.99;96789.56;4175966;28;21142;-88
2023/11/10 06:12:55;;;;;;;0.90;0.53;;;;;;;9.45;100.00;96797.09;4205178;28;20228;-88
2023/11/10 06:14:59;;;;;;;0.80;0.50;;;;;;;9.47;99.85;96795.19;4197983;28;20988;-88
2023/11/10 06:17:03;;;;;;;1.23;0.50;;;;;;;9.46;99.88;96799.56;4175900;28;20655;-89
2023/11/10 06:19:07;;;;;;;0.90;0.50;;;;;;;9.52;99.44;96804.25;4206494;28;20269;-88
2023/11/10 06:21:11;;;;;;;0.90;0.50;;;;;;;9.55;99.32;96803.19;4175116;28;20293;-88
2023/11/10 06:23:14;;;;;;;0.90;0.50;;;;;;;9.58;99.28;96811.56;4207778;28;20630;-88
2023/11/10 06:25:17;;;;;;;2.53;0.90;;;;;;;9.65;99.43;96814.44;4190472;28;20645;-88
2023/11/10 06:27:21;;;;;;;0.90;0.40;;;;;;;9.69;99.33;96813.25;4203961;28;20619;-89
2023/11/10 06:29:25;;;;;;;0.93;0.50;;;;;;;9.68;98.47;96811.59;4189115;28;20636;-88
2023/11/10 06:31:28;;;;;;;1.45;0.50;;;;;;;9.68;98.77;96809.81;4186008;28;20662;-87
2023/11/10 06:33:32;;;;;;;1.02;0.60;;;;;;;9.72;97.98;96815.59;4206389;28;20202;-85
2023/11/10 06:35:36;;;;;;;2.13;0.70;;;;;;;9.67;98.68;96833.38;4170841;28;20206;-87
2023/11/10 06:37:40;;;;;;;1.30;0.50;;;;;;;9.68;98.29;96833.25;4191718;28;20635;-85
2023/11/10 06:39:43;;;;;;;0.90;0.50;;;;;;;9.73;98.27;96832.88;4186678;28;20532;-85
2023/11/10 06:41:47;;;;;;;1.00;0.60;;;;;;;9.79;98.08;96842.72;4208771;28;20292;-85
2023/11/10 06:43:50;;;;;;;1.47;0.50;;;;;;;9.83;97.47;96828.50;4206612;28;20661;-84
2023/11/10 06:45:53;;;;;;;1.40;0.70;;;;;;;9.88;97.73;96833.19;4206430;28;20629;-85
2023/11/10 06:47:59;;;;;;;0.82;0.50;;;;;;;9.95;97.22;96839.56;4205899;28;20636;-85
2023/11/10 06:50:05;;;;;;;1.45;0.70;;;;;;;9.98;97.07;96841.91;4212038;28;20223;-85
2023/11/10 06:52:07;;;;;;;1.50;0.50;;;;;;;9.98;97.36;96841.06;4192244;28;20256;-85
2023/11/10 06:54:10;;;;;;;1.57;0.80;;;;;;;10.02;96.63;96840.66;4192471;28;20627;-84
2023/11/10 06:56:14;;;;;;;0.93;0.50;;;;;;;10.06;96.31;96844.66;4170916;28;20714;-86
2023/11/10 06:58:17;;;;;;;8.43;5.50;;;;;;;10.08;96.37;96845.34;4171223;28;20659;-86
2023/11/10 07:00:21;;;;;;;3.27;1.00;;;;;;;10.07;96.26;96850.69;4186869;28;20643;-86
2023/11/10 07:02:24;;;;;;;5.17;0.70;;;;;;;10.11;96.12;96852.09;4186959;28;21003;-85
2023/11/10 07:04:29;;;;;;;1.07;0.70;;;;;;;10.11;95.69;96852.09;4189948;28;21068;-84
2023/11/10 07:06:34;;;;;;;1.27;0.60;;;;;;;10.09;95.99;96852.22;4188705;28;20639;-84
2023/11/10 07:08:39;;;;;;;1.33;0.80;;;;;;;10.10;96.24;96853.88;4168422;28;20679;-84
2023/11/10 07:10:44;;;;;;;0.97;0.50;;;;;;;10.10;95.68;96861.69;4191330;28;20719;-84
2023/11/10 07:12:48;;;;;;;1.53;0.70;;;;;;;10.12;95.64;96857.16;4201975;28;20723;-85
2023/11/10 07:14:52;;;;;;;0.90;0.50;;;;;;;10.11;94.87;96857.28;4201159;28;20725;-86
2023/11/10 07:16:56;;;;;;;2.60;1.77;;;;;;;10.07;95.24;96859.34;4185817;28;20640;-86
2023/11/10 07:18:59;;;;;;;1.20;0.60;;;;;;;10.05;95.55;96850.00;4202405;28;20662;-86
2023/11/10 07:21:03;;;;;;;1.08;0.70;;;;;;;10.04;95.99;96848.34;4199723;28;20758;-87
2023/11/10 07:23:07;;;;;;;1.37;0.73;;;;;;;10.03;95.74;96852.75;4188306;28;20286;-87
2023/11/10 07:25:11;;;;;;;2.03;0.80;;;;;;;10.03;95.54;96852.75;4189266;28;20624;-87
2023/11/10 07:27:14;;;;;;;1.40;0.47;;;;;;;10.04;95.33;96862.22;4191453;28;20631;-87
2023/11/10 07:29:17;;;;;;;0.97;0.60;;;;;;;10.07;95.39;96861.94;4175932;28;20708;-86
2023/11/10 07:31:20;;;;;;;1.03;0.60;;;;;;;10.09;94.86;96865.25;4182931;28;20691;-87
2023/11/10 07:33:24;;;;;;;1.50;0.60;;;;;;;10.13;95.81;96861.44;4199075;28;21008;-86
2023/11/10 07:35:27;;;;;;;1.35;0.55;;;;;;;10.14;93.75;96860.44;4177093;28;20635;-87
2023/11/10 07:37:34;;;;;;;0.70;0.40;;;;;;;10.12;94.72;96864.16;4190104;28;20198;-86
2023/11/10 07:39:41;;;;;;;0.80;0.50;;;;;;;10.14;94.63;96855.25;4207003;28;20660;-88
2023/11/10 07:41:44;;;;;;;1.77;0.60;;;;;;;10.23;94.92;96862.25;4205145;28;21000;-86
2023/11/10 07:43:47;;;;;;;1.07;0.40;;;;;;;10.26;95.65;96872.41;4189276;28;20684;-87
2023/11/10 07:45:50;;;;;;;1.10;0.70;;;;;;;10.27;95.65;96870.63;4185171;28;20681;-87
2023/11/10 07:48:03;;;;;;;1.20;0.60;;;;;;;10.29;95.36;96874.75;4182048;28;20671;-87
2023/11/10 07:50:07;;;;;;;3.47;2.47;;;;;;;10.36;95.27;96870.69;4205268;28;20630;-87
2023/11/10 07:52:10;;;;;;;4.93;2.43;;;;;;;10.38;96.07;96876.56;4188758;28;21027;-87
2023/11/10 07:54:17;;;;;;;3.10;2.10;;;;;;;10.43;96.40;96879.59;4192545;28;20639;-85
2023/11/10 07:56:22;;;;;;;1.30;0.70;;;;;;;10.48;95.93;96880.84;4192234;28;20650;-86
2023/11/10 07:58:26;;;;;;;1.33;0.90;;;;;;;10.53;95.63;96886.47;4201558;28;20614;-86
2023/11/10 08:00:29;;;;;;;1.37;0.70;;;;;;;10.55;96.17;96881.94;4173393;28;20631;-86
2023/11/10 08:02:33;;;;;;;2.43;0.80;;;;;;;10.62;96.29;96875.25;4202912;28;20623;-86
2023/11/10 08:04:36;;;;;;;1.90;0.87;;;;;;;10.69;96.09;96888.56;4187750;28;20660;-86
2023/11/10 08:06:40;;;;;;;1.90;0.97;;;;;;;10.73;96.16;96892.56;4192903;28;20636;-85
2023/11/10 08:08:43;;;;;;;1.00;0.63;;;;;;;10.75;95.24;96881.03;4198940;28;21196;-85
2023/11/10 08:10:47;;;;;;;1.93;0.80;;;;;;;10.78;95.01;96879.94;4183667;28;20669;-84
2023/11/10 08:12:53;;;;;;;1.33;1.13;;;;;;;10.77;94.70;96892.16;4185910;28;21532;-84
2023/11/10 08:14:57;;;;;;;1.47;0.70;;;;;;;10.79;94.16;96887.63;4177323;28;20708;-85
2023/11/10 08:17:00;;;;;;;1.87;1.23;;;;;;;10.82;94.47;96890.81;4211093;28;20681;-84
2023/11/10 08:19:04;;;;;;;1.53;0.80;;;;;;;10.86;95.33;96889.56;4188708;28;20652;-84
2023/11/10 08:21:16;;;;;;;2.97;1.10;;;;;;;10.87;94.60;96895.63;4204530;28;20666;-84
2023/11/10 08:23:19;;;;;;;2.17;1.00;;;;;;;10.85;95.08;96900.13;4206075;28;20622;-85
2023/11/10 08:25:21;;;;;;;1.10;0.70;;;;;;;10.74;93.45;96889.00;4178053;28;21174;-84
2023/11/10 08:27:25;;;;;;;1.63;1.00;;;;;;;10.72;94.50;96903.94;4190549;28;20706;-84
2023/11/10 08:29:29;;;;;;;1.73;1.00;;;;;;;10.74;94.18;96895.03;4192400;28;20623;-84
2023/11/10 08:31:32;;;;;;;1.67;0.80;;;;;;;10.76;95.58;96900.94;4202057;28;21002;-85
2023/11/10 08:33:36;;;;;;;2.20;0.93;;;;;;;10.77;95.38;96905.19;4176316;28;20627;-85
2023/11/10 08:35:39;;;;;;;1.57;0.93;;;;;;;10.79;96.25;96907.66;4194423;28;20760;-84
2023/11/10 08:37:42;;;;;;;1.73;1.20;;;;;;;10.81;95.91;96910.00;4175102;28;20630;-86
2023/11/10 08:39:46;;;;;;;1.60;0.90;;;;;;;10.85;96.00;96898.34;4189297;28;20635;-84
2023/11/10 08:41:49;;;;;;;1.70;1.10;;;;;;;10.90;96.49;96903.97;4187458;28;20612;-85
2023/11/10 08:43:52;;;;;;;3.27;2.33;;;;;;;10.94;97.32;96913.16;4186327;28;20659;-85
2023/11/10 08:45:57;;;;;;;2.57;1.20;;;;;;;10.98;97.46;96908.53;4170497;28;20625;-85
2023/11/10 08:48:00;;;;;;;2.40;1.63;;;;;;;11.01;96.02;96909.06;4197420;28;21219;-85
2023/11/10 08:50:05;;;;;;;2.20;1.30;;;;;;;11.02;97.60;96902.91;4172586;28;20633;-84
2023/11/10 08:52:08;;;;;;;2.70;2.10;;;;;;;11.06;96.92;96914.69;4191608;28;20632;-86
2023/11/10 08:54:11;;;;;;;3.63;1.87;;;;;;;11.09;95.40;96909.19;4203463;28;20623;-85
2023/11/10 08:56:14;;;;;;;2.30;1.30;;;;;;;11.11;95.45;96912.50;4186875;28;20678;-85
2023/11/10 08:58:18;;;;;;;1.77;1.07;;;;;;;11.11;95.65;96915.13;4198856;28;20627;-85
2023/11/10 09:00:21;;;;;;;1.83;1.10;;;;;;;11.11;95.67;96912.50;4181112;28;20610;-85
2023/11/10 09:02:25;;;;;;;1.50;0.80;;;;;;;11.09;95.91;96909.19;4170664;28;20664;-85
2023/11/10 09:04:29;;;;;;;1.67;0.80;;;;;;;11.07;95.58;96911.13;4170447;28;20673;-84
2023/11/10 09:06:33;;;;;;;1.40;1.00;;;;;;;11.07;94.26;96908.53;4201900;28;20673;-84
2023/11/10 09:08:36;;;;;;;1.87;0.93;;;;;;;11.07;93.93;96915.53;4183593;28;20723;-84
2023/11/10 09:10:39;;;;;;;1.87;1.00;;;;;;;11.09;95.22;96911.00;4183071;28;20631;-85
2023/11/10 09:12:42;;;;;;;1.90;1.10;;;;;;;11.10;94.53;96916.06;4194556;28;20618;-85
2023/11/10 09:14:45;;;;;;;1.70;0.90;;;;;;;11.08;96.12;96917.16;4172351;28;20636;-84
2023/11/10 09:16:48;;;;;;;1.33;0.77;;;;;;;11.08;95.23;96910.19;4181325;28;20627;-85
2023/11/10 09:18:53;;;;;;;1.53;0.90;;;;;;;11.03;93.88;96914.97;4195304;28;20718;-85
2023/11/10 09:20:56;;;;;;;2.10;0.77;;;;;;;11.04;95.36;96915.81;4186605;28;20632;-84
2023/11/10 09:23:00;;;;;;;2.00;0.77;;;;;;;11.02;94.72;96913.34;4187040;28;20619;-85
2023/11/10 09:25:04;;;;;;;1.70;0.80;;;;;;;11.03;94.86;96914.16;4183974;28;20653;-84
2023/11/10 09:27:08;;;;;;;1.37;0.77;;;;;;;11.08;95.40;96919.75;4201126;28;21067;-85
2023/11/10 09:29:11;;;;;;;1.50;0.70;;;;;;;11.05;95.40;96912.22;4205628;28;20720;-83
2023/11/10 09:31:14;;;;;;;1.67;0.80;;;;;;;10.92;96.14;96916.88;4198642;28;20675;-84
2023/11/10 09:33:18;;;;;;;1.90;1.00;;;;;;;10.85;96.07;96923.59;4178198;28;21047;-85
2023/11/10 09:35:22;;;;;;;1.40;0.80;;;;;;;10.80;96.01;96920.56;4180542;28;21212;-85
2023/11/10 09:37:26;;;;;;;1.70;0.80;;;;;;;10.87;96.04;96925.13;4192342;28;20628;-85
2023/11/10 09:39:29;;;;;;;1.40;0.80;;;;;;;10.95;98.19;96934.88;4190065;28;20628;-84
2023/11/10 09:41:38;;;;;;;2.80;0.63;;;;;;;10.98;97.17;96927.59;4202120;28;21044;-82
2023/11/10 09:43:42;;;;;;;1.87;0.60;;;;;;;11.03;97.27;96933.22;4171374;28;21116;-86